mastabe.net alexa rank chart, mastabe.net alexa rank daily changes

mastabe.net alexa rank chart, mastabe.net alexa rank daily changes

mastabe.net
Actual rank:
175 704

RANK HISTORY

Date Rank Diff
2018/07/18 175 704 +98 794
2018/07/17 76 910 -21 681
2018/07/16 98 591 +10 315
2018/07/15 88 276 +27 080
2018/07/14 61 196 -270 458
2018/07/13 331 654 +219 110
2018/07/12 112 544 +15 664
2018/07/11 96 880 +25 549
2018/07/10 71 331 -10 197
2018/07/09 81 528 -21 998
2018/07/08 103 526 +39 687
2018/07/07 63 839 -18 211
2018/07/06 82 050 -17 479
2018/07/05 99 529 +12 537
2018/07/04 86 992 -17 962
2018/07/03 104 954 +7 229
2018/07/02 97 725 -16 095
2018/07/01 113 820 +27 772
2018/06/30 86 048 -33 549
2018/06/29 119 597 -71 994
2018/06/28 191 591 -89 434
2018/06/27 281 025 +238 211
2018/06/26 42 814 -1 209
2018/06/25 44 023 -41 135
2018/06/24 85 158 +8 847
2018/06/23 76 311 -18 415
2018/06/22 94 726 +26 577
2018/06/21 68 149 -9 849
2018/06/20 77 998 +20 560
2018/06/19 57 438 -1 006
2018/06/18 58 444 -40 978
2018/06/16 99 422 +22 086
2018/06/15 77 336 -6 018
2018/06/14 83 354 -92 082
2018/06/13 175 436 +94 855
2018/06/12 80 581 +16 427
2018/06/11 64 154 +177
2018/06/10 63 977 -30 534
2018/06/09 94 511 +11 569
2018/06/08 82 942 +7 592
2018/06/07 75 350 -22 932
2018/06/06 98 282 +46 333
2018/06/05 51 949 +18 622
2018/06/04 33 327 -29 890
2018/06/03 63 217 +15 751
2018/06/02 47 466 -30 260
2018/06/01 77 726 +33 948
2018/05/31 43 778 -18 281
2018/05/30 62 059 +34 353
2018/05/29 27 706 +6 131
2018/05/28 21 575 -25 528
2018/05/27 47 103 -37 895
2018/05/26 84 998 +9 207
2018/05/25 75 791 -38 325
2018/05/24 114 116 +33 823
2018/05/23 80 293 +40 977
2018/05/22 39 316 -2 772
2018/05/21 42 088 -13 145
2018/05/20 55 233 -96 171
2018/05/19 151 404

WIDGET FOR YOUR SITE

DOMAINS WITH THE NEAREST RANK

Domain Rank
winetwork.ru 175 699
lafabriquedunet.fr 175 700
spacegid.com 175 701
mall.hr 175 702
nuteczki.eu 175 703
mastabe.net 175 704
meget.kiev.ua 175 705
maxbmw.com 175 706
dragonflycave.com 175 707
bakersfieldcollege.edu 175 708
bereginy.com 175 709

DOMAINS WITH THE NEAREST RANK BY TLD .net

Domain Rank
spamcop.net 175 525
ionwave.net 175 537
iskuri.net 175 559
weekplan.net 175 598
windows64torrent.net 175 636
mastabe.net 175 704
handtucher.net 175 786
hiyamedia.net 175 822
ir-music.net 175 823
ultramir.net 175 837
meinungsplatz.net 175 871